< < Back
Terminal Aerodrome Forecast


Current Version              Previous Versions:   1  2  3  4  5  6  7  8  9  

Terminal Aerodrome Forecast

554
FTUS42 KGSP 292331
TAFAVL
TAF
KAVL 292331Z 3000/3024 21006KT P6SM SCT060
      TEMPO 3000/3004 BKN060
     FM300400 00000KT P6SM SCT250
     FM300700 00000KT 4SM BR SCT210
     FM301300 00000KT P6SM SCT250
     FM301600 16005KT P6SM BKN035
     FM301800 17006KT P6SM SCT040=

Latest METAR

037
SAUS70 KWBC 301400 RRI
MTRAVL
METAR KAVL 301354Z VRB03KT 10SM CLR 21/16 A3027 RMK AO2 SLP227
T02060161


USA.gov is the U.S. government's official web portal to all federal, state and local government web resources and services.